Time;durP1;ratioP1;P1;durP2;ratioP2;P2;SDS_P1;SDS_P2;PMS_P1;PMS_P2;Temp;Humidity;BMP_temperature;BMP_pressure;BME280_temperature;BME280_humidity;BME280_pressure;Samples;Min_cycle;Max_cycle;Signal;HPM_P1;HPM_P2
2023/05/01 06:02:14;;;;;;;12.43;9.20;;;;;;;;;;5137113;27;20278;-84
2023/05/01 06:10:57;;;;;;;16.77;8.60;;;;;;;;;;5136524;27;20663;-81
2023/05/01 06:17:28;;;;;;;12.43;10.03;;;8.50;99.90;;;;;;5134019;27;20290;-81
2023/05/01 06:24:57;;;;;;;15.63;11.53;;;8.70;99.90;;;;;;5115248;27;20743;-80
2023/05/01 06:31:44;;;;;;;13.80;10.60;;;8.90;99.90;;;;;;5136573;27;20283;-80
2023/05/01 06:38:21;;;;;;;14.07;9.67;;;;;;;;;;5125098;27;20283;-82
2023/05/01 06:45:14;;;;;;;14.67;11.03;;;9.10;99.90;;;;;;5136091;27;20748;-83
2023/05/01 06:51:31;;;;;;;14.73;11.80;;;9.30;99.90;;;;;;5136490;27;20268;-83
2023/05/01 06:56:58;;;;;;;12.17;10.57;;;;;;;;;;5136296;27;20296;-84
2023/05/01 07:02:07;;;;;;;12.50;11.03;;;;;;;;;;5139604;27;20279;-84
2023/05/01 07:08:20;;;;;;;11.13;8.90;;;9.00;99.90;;;;;;5134815;27;20273;-82
2023/05/01 07:14:00;;;;;;;11.83;10.17;;;9.70;99.90;;;;;;5116900;27;20555;-83
2023/05/01 07:18:11;;;;;;;10.77;9.30;;;9.90;99.90;;;;;;5135145;27;20277;-83
2023/05/01 07:22:50;;;;;;;10.87;9.20;;;9.70;99.90;;;;;;5109593;27;20632;-82
2023/05/01 07:26:38;;;;;;;13.13;9.70;;;10.00;99.90;;;;;;5139876;27;20321;-83
2023/05/01 07:30:35;;;;;;;11.57;9.67;;;10.10;99.90;;;;;;5137554;27;20629;-84
2023/05/01 07:34:35;;;;;;;10.37;8.90;;;10.20;99.90;;;;;;5137585;27;20277;-85
2023/05/01 07:38:33;;;;;;;10.17;8.97;;;;;;;;;;5134518;27;20267;-84
2023/05/01 07:42:32;;;;;;;9.07;8.17;;;10.40;99.90;;;;;;5133759;27;20271;-86
2023/05/01 07:46:29;;;;;;;9.60;8.70;;;10.50;99.90;;;;;;5120254;27;20282;-84
2023/05/01 07:50:30;;;;;;;12.10;9.40;;;10.60;99.90;;;;;;5072810;27;20285;-83
2023/05/01 07:54:41;;;;;;;10.97;8.93;;;10.60;99.90;;;;;;5135345;27;20275;-86
2023/05/01 07:58:50;;;;;;;12.27;8.70;;;10.50;99.90;;;;;;5135838;27;20278;-86
2023/05/01 08:03:05;;;;;;;11.13;7.97;;;10.70;99.90;;;;;;5135640;27;20293;-85
2023/05/01 08:07:20;;;;;;;10.97;8.87;;;10.20;99.90;;;;;;5135422;27;20288;-85
2023/05/01 08:13:11;;;;;;;10.23;8.90;;;10.20;99.90;;;;;;5147385;27;20604;-86
2023/05/01 08:19:03;;;;;;;11.13;8.87;;;10.10;99.90;;;;;;5095674;27;20834;-85
2023/05/01 08:24:45;;;;;;;10.23;9.13;;;;;;;;;;5136337;27;20267;-86
2023/05/01 08:29:51;;;;;;;10.57;9.07;;;10.40;99.90;;;;;;5136106;27;20271;-85
2023/05/01 08:33:51;;;;;;;14.10;10.03;;;10.60;99.90;;;;;;5135474;27;20626;-85
2023/05/01 08:37:39;;;;;;;13.10;9.47;;;;;;;;;;5130795;27;20286;-86
2023/05/01 08:41:39;;;;;;;13.97;9.60;;;10.70;99.90;;;;;;5134287;27;20650;-86
2023/05/01 08:45:37;;;;;;;11.37;10.00;;;10.90;99.90;;;;;;5134192;27;20272;-86
2023/05/01 08:49:46;;;;;;;12.13;10.27;;;12.10;99.90;;;;;;5112214;27;20585;-84
2023/05/01 08:53:28;;;;;;;11.20;8.90;;;;;;;;;;5071912;28;20527;-87
2023/05/01 08:55:58;;;;;;;10.50;9.33;;;11.20;99.90;;;;;;5072823;28;20177;-88
2023/05/01 08:58:25;;;;;;;10.10;8.97;;;11.20;99.90;;;;;;5078802;28;20172;-86
2023/05/01 09:00:55;;;;;;;9.83;8.80;;;11.30;99.90;;;;;;5075302;28;20168;-87
2023/05/01 09:03:21;;;;;;;9.47;8.47;;;11.40;99.90;;;;;;5077106;28;20176;-86
2023/05/01 09:05:48;;;;;;;10.57;8.67;;;11.40;99.90;;;;;;5079879;28;20173;-86
2023/05/01 09:08:13;;;;;;;10.20;9.13;;;11.50;99.90;;;;;;5079996;28;20528;-86
2023/05/01 09:10:44;;;;;;;10.70;9.03;;;11.50;99.90;;;;;;5078629;28;20623;-87
2023/05/01 09:13:10;;;;;;;12.33;9.27;;;11.60;99.90;;;;;;5076628;28;20196;-88
2023/05/01 09:15:35;;;;;;;9.30;8.40;;;11.60;99.90;;;;;;5078117;28;20168;-87
2023/05/01 09:18:01;;;;;;;9.60;8.70;;;11.60;99.90;;;;;;5077619;28;20188;-87
2023/05/01 09:20:27;;;;;;;10.37;9.17;;;11.70;99.90;;;;;;5076568;28;20178;-87
2023/05/01 09:22:56;;;;;;;16.23;8.43;;;11.60;99.90;;;;;;5077312;28;20177;-88
2023/05/01 09:25:21;;;;;;;9.10;8.20;;;11.60;99.90;;;;;;5074956;28;20184;-87
2023/05/01 09:27:47;;;;;;;14.43;10.43;;;11.50;99.90;;;;;;5074044;28;20197;-86
2023/05/01 09:30:36;;;;;;;10.23;9.13;;;11.50;99.90;;;;;;5075076;28;20177;-86
2023/05/01 09:33:12;;;;;;;20.90;14.43;;;11.50;99.90;;;;;;5074933;28;20637;-87
2023/05/01 09:35:53;;;;;;;37.53;23.40;;;11.50;99.90;;;;;;5075343;28;20172;-86
2023/05/01 09:38:28;;;;;;;27.43;20.60;;;11.50;99.90;;;;;;5072063;28;20177;-83
2023/05/01 09:41:02;;;;;;;19.27;15.97;;;11.50;99.90;;;;;;5073685;28;20539;-84
2023/05/01 09:43:29;;;;;;;12.50;10.70;;;11.60;99.90;;;;;;5073521;28;20173;-83
2023/05/01 09:46:10;;;;;;;13.17;10.47;;;11.80;99.90;;;;;;5071090;28;20260;-83
2023/05/01 09:48:36;;;;;;;35.40;25.63;;;11.90;99.90;;;;;;5071497;28;20667;-83
2023/05/01 09:51:33;;;;;;;19.20;15.10;;;11.90;99.90;;;;;;5070535;28;20199;-83
2023/05/01 09:54:03;;;;;;;11.67;9.73;;;11.90;99.90;;;;;;5067453;28;20197;-84
2023/05/01 09:56:31;;;;;;;10.47;9.37;;;11.90;99.90;;;;;;5071944;28;20279;-84
2023/05/01 09:58:59;;;;;;;14.33;11.63;;;11.90;99.90;;;;;;5072673;28;20172;-85
2023/05/01 10:01:42;;;;;;;28.60;18.60;;;11.90;99.90;;;;;;5071926;28;20226;-85
2023/05/01 10:04:11;;;;;;;19.80;15.80;;;11.90;99.90;;;;;;5061325;28;20201;-84
2023/05/01 10:06:38;;;;;;;38.50;24.80;;;12.00;99.90;;;;;;5057804;28;20197;-83
2023/05/01 10:09:26;;;;;;;14.70;11.33;;;12.00;99.90;;;;;;5058816;28;20181;-84
2023/05/01 10:11:54;;;;;;;16.13;11.50;;;12.00;99.90;;;;;;5058350;28;20213;-83
2023/05/01 10:14:22;;;;;;;22.47;18.70;;;12.10;99.90;;;;;;5058530;28;20180;-83
2023/05/01 10:16:48;;;;;;;15.90;11.87;;;12.20;99.90;;;;;;5059530;28;20244;-84
2023/05/01 10:19:16;;;;;;;16.10;14.40;;;12.10;99.90;;;;;;5059539;28;20551;-85
2023/05/01 10:21:42;;;;;;;11.53;10.33;;;12.20;99.90;;;;;;5061037;28;20174;-85
2023/05/01 10:24:08;;;;;;;12.53;10.70;;;12.10;99.90;;;;;;5060532;28;20227;-84
2023/05/01 10:26:35;;;;;;;16.90;12.73;;;12.10;99.90;;;;;;5058565;28;20655;-85
2023/05/01 10:29:01;;;;;;;11.17;9.77;;;12.20;99.90;;;;;;5060226;28;20208;-84
2023/05/01 10:31:28;;;;;;;12.53;11.20;;;12.10;99.90;;;;;;5059936;28;20284;-85
2023/05/01 10:33:59;;;;;;;16.37;14.30;;;12.10;99.90;;;;;;5058554;28;20565;-85
2023/05/01 10:36:36;;;;;;;9.13;7.67;;;12.00;99.90;;;;;;5058197;28;20226;-85
2023/05/01 10:39:02;;;;;;;8.93;8.00;;;12.00;99.90;;;;;;5058418;28;20177;-84
2023/05/01 10:42:00;;;;;;;10.37;8.60;;;12.00;99.90;;;;;;5057403;28;20181;-84
2023/05/01 10:44:26;;;;;;;13.83;11.43;;;12.10;99.90;;;;;;5057885;28;20177;-86
2023/05/01 10:46:53;;;;;;;9.03;8.13;;;12.10;99.90;;;;;;5059316;28;20204;-85
2023/05/01 10:49:18;;;;;;;15.17;13.50;;;12.20;99.90;;;;;;5058035;28;20181;-84
2023/05/01 10:51:57;;;;;;;14.37;12.73;;;12.20;99.90;;;;;;5057689;28;20215;-84
2023/05/01 10:54:27;;;;;;;13.50;10.70;;;12.40;99.90;;;;;;5058033;28;20166;-85
2023/05/01 10:56:56;;;;;;;11.83;8.73;;;12.40;99.90;;;;;;5057938;28;20212;-85
2023/05/01 10:59:21;;;;;;;10.37;7.87;;;12.50;99.90;;;;;;5057856;28;20583;-85
2023/05/01 11:01:50;;;;;;;8.87;7.97;;;12.40;99.90;;;;;;5056901;28;20181;-85
2023/05/01 11:04:21;;;;;;;11.53;10.40;;;12.50;99.90;;;;;;5056975;28;20184;-84
2023/05/01 11:07:14;;;;;;;8.27;7.40;;;12.50;99.90;;;;;;5056838;28;20251;-84
2023/05/01 11:09:53;;;;;;;11.73;10.47;;;12.60;99.90;;;;;;5063495;28;20193;-85
2023/05/01 11:12:47;;;;;;;16.43;13.90;;;12.80;99.90;;;;;;5063888;28;20201;-85
2023/05/01 11:15:32;;;;;;;9.40;8.40;;;13.00;99.90;;;;;;5057483;28;20635;-84
2023/05/01 11:18:00;;;;;;;15.50;12.87;;;13.20;99.90;;;;;;5060444;28;20551;-86
2023/05/01 11:20:26;;;;;;;9.03;7.73;;;13.20;99.90;;;;;;5057007;28;20185;-85
2023/05/01 11:22:53;;;;;;;19.00;14.27;;;13.20;99.90;;;;;;5057680;28;20178;-86
2023/05/01 11:25:23;;;;;;;19.57;12.37;;;13.20;99.90;;;;;;5056843;28;20267;-85
2023/05/01 11:27:49;;;;;;;23.43;16.80;;;13.20;99.90;;;;;;5055835;28;20201;-85
2023/05/01 11:30:15;;;;;;;9.83;7.53;;;13.10;99.90;;;;;;5056499;28;20269;-85
2023/05/01 11:32:46;;;;;;;7.77;6.93;;;13.10;99.90;;;;;;5057972;28;20197;-85
2023/05/01 11:35:23;;;;;;;7.50;6.43;;;13.10;99.90;;;;;;5058105;28;20193;-84
2023/05/01 11:37:54;;;;;;;9.47;7.37;;;12.90;99.90;;;;;;5056962;28;20192;-84
2023/05/01 11:40:24;;;;;;;8.57;6.33;;;12.90;99.90;;;;;;5056560;28;20184;-85
2023/05/01 11:42:59;;;;;;;9.20;8.10;;;12.90;99.90;;;;;;5056809;28;20181;-85
2023/05/01 11:45:25;;;;;;;16.53;11.30;;;13.00;99.90;;;;;;5057942;28;20165;-85
2023/05/01 11:47:50;;;;;;;9.17;7.87;;;13.00;99.90;;;;;;5056567;28;20250;-86
2023/05/01 11:50:16;;;;;;;6.67;5.63;;;13.00;99.90;;;;;;5057180;28;20537;-85
2023/05/01 11:52:42;;;;;;;7.57;6.77;;;13.00;99.90;;;;;;5056128;28;20258;-85
2023/05/01 11:55:09;;;;;;;8.17;6.77;;;13.10;99.90;;;;;;5055970;28;20173;-86
2023/05/01 11:57:45;;;;;;;5.20;4.70;;;13.20;99.90;;;;;;5057331;28;20186;-85
2023/05/01 12:00:13;;;;;;;5.23;4.73;;;13.20;99.90;;;;;;5056337;28;20174;-85
2023/05/01 12:02:39;;;;;;;6.30;5.70;;;13.10;99.90;;;;;;5057424;28;20181;-86
2023/05/01 12:05:16;;;;;;;6.27;5.67;;;13.10;99.90;;;;;;5057408;28;20182;-86
2023/05/01 12:07:41;;;;;;;7.37;6.67;;;13.10;99.90;;;;;;5055809;28;20205;-85
2023/05/01 12:10:07;;;;;;;5.77;5.20;;;13.10;99.90;;;;;;5055396;28;20177;-85
2023/05/01 12:12:33;;;;;;;5.17;4.67;;;13.20;99.90;;;;;;5057212;28;20193;-85
2023/05/01 12:14:59;;;;;;;5.40;4.90;;;13.10;99.90;;;;;;5056954;28;20180;-84
2023/05/01 12:17:26;;;;;;;7.63;5.03;;;13.20;99.90;;;;;;5054918;28;20607;-85
2023/05/01 12:19:53;;;;;;;5.87;4.97;;;13.20;99.90;;;;;;5055442;28;20543;-86
2023/05/01 12:22:18;;;;;;;5.20;4.70;;;13.20;99.90;;;;;;5055736;28;20182;-85
2023/05/01 12:24:52;;;;;;;6.17;4.30;;;13.30;99.90;;;;;;5057015;28;20185;-85
2023/05/01 12:27:19;;;;;;;5.03;4.53;;;13.40;99.90;;;;;;5055280;28;20201;-86
2023/05/01 12:29:46;;;;;;;6.20;5.60;;;13.30;99.90;;;;;;5056292;28;20256;-83
2023/05/01 12:32:13;;;;;;;6.63;5.40;;;13.40;99.90;;;;;;5054960;28;20698;-84
2023/05/01 12:34:39;;;;;;;5.80;5.20;;;13.60;99.90;;;;;;5057626;28;20704;-85
2023/05/01 12:37:04;;;;;;;5.93;5.33;;;13.60;99.90;;;;;;5055509;28;20197;-85
2023/05/01 12:39:43;;;;;;;4.47;3.97;;;13.70;99.90;;;;;;5055015;28;20178;-86
2023/05/01 12:42:13;;;;;;;8.87;6.43;;;13.60;99.90;;;;;;5055756;28;20711;-85
2023/05/01 12:44:39;;;;;;;11.17;7.50;;;13.50;99.90;;;;;;5055304;28;20193;-85
2023/05/01 12:47:07;;;;;;;8.40;6.30;;;13.50;99.90;;;;;;5054826;28;20209;-85
2023/05/01 12:49:37;;;;;;;9.00;7.33;;;13.60;99.90;;;;;;5056902;28;20173;-85
2023/05/01 12:52:06;;;;;;;4.80;4.40;;;13.70;99.90;;;;;;5055426;28;20213;-85
2023/05/01 12:54:37;;;;;;;6.50;5.63;;;13.80;99.90;;;;;;5054539;28;20193;-86
2023/05/01 12:57:13;;;;;;;5.97;4.67;;;13.60;99.90;;;;;;5054728;28;20193;-84
2023/05/01 12:59:41;;;;;;;6.13;5.53;;;13.50;99.90;;;;;;5054521;28;20173;-85
2023/05/01 13:02:09;;;;;;;5.83;5.23;;;13.50;99.90;;;;;;5055894;28;20178;-85
2023/05/01 13:04:36;;;;;;;5.83;5.33;;;13.60;99.90;;;;;;5056122;28;20174;-85
2023/05/01 13:07:09;;;;;;;6.13;4.50;;;13.60;99.90;;;;;;5055957;28;20215;-85
2023/05/01 13:09:35;;;;;;;5.10;3.97;;;13.60;99.90;;;;;;5054512;28;20201;-85
2023/05/01 13:12:04;;;;;;;5.13;4.63;;;13.60;99.90;;;;;;5055881;28;20208;-85
2023/05/01 13:14:40;;;;;;;4.27;3.70;;;13.60;99.90;;;;;;5054602;28;20279;-85
2023/05/01 13:17:10;;;;;;;4.20;3.40;;;13.60;99.90;;;;;;5053930;28;20201;-84
2023/05/01 13:19:37;;;;;;;3.70;3.20;;;13.50;99.90;;;;;;5053342;28;20631;-85
2023/05/01 13:22:03;;;;;;;3.43;3.13;;;13.70;99.90;;;;;;5055095;28;20204;-85
2023/05/01 13:24:38;;;;;;;5.33;3.80;;;13.80;99.90;;;;;;5062556;28;20659;-86
2023/05/01 13:27:04;;;;;;;2.93;2.73;;;14.00;99.90;;;;;;5065739;28;20229;-85
2023/05/01 13:29:31;;;;;;;3.30;3.00;;;13.90;99.90;;;;;;5056025;28;20186;-85
2023/05/01 13:31:56;;;;;;;2.87;2.63;;;13.60;99.90;;;;;;5056066;28;20205;-85
2023/05/01 13:34:29;;;;;;;3.57;2.70;;;13.40;99.90;;;;;;5057412;28;20265;-84
2023/05/01 13:36:56;;;;;;;2.87;2.67;;;13.10;99.90;;;;;;5055337;28;20201;-84
2023/05/01 13:39:22;;;;;;;3.50;3.20;;;13.00;99.90;;;;;;5057637;28;20231;-85
2023/05/01 13:41:49;;;;;;;4.23;3.50;;;12.80;99.90;;;;;;5058416;28;20188;-84
2023/05/01 13:44:16;;;;;;;3.37;3.03;;;12.80;99.90;;;;;;5059383;28;20185;-83
2023/05/01 13:46:42;;;;;;;3.57;3.20;;;12.60;99.90;;;;;;5058671;28;20276;-85
2023/05/01 13:49:08;;;;;;;3.93;3.53;;;12.50;99.90;;;;;;5059634;28;20561;-84
2023/05/01 13:51:41;;;;;;;4.57;4.17;;;12.50;99.90;;;;;;5059667;28;20231;-86
2023/05/01 13:54:08;;;;;;;5.20;4.30;;;12.50;99.90;;;;;;5059134;28;20185;-85
2023/05/01 13:56:35;;;;;;;5.13;4.20;;;12.50;99.90;;;;;;5059014;28;20198;-84
2023/05/01 13:59:01;;;;;;;4.67;3.80;;;12.70;99.90;;;;;;5060250;28;20181;-85
2023/05/01 14:01:26;;;;;;;4.73;4.13;;;12.80;99.90;;;;;;5059302;28;20265;-85
2023/05/01 14:03:55;;;;;;;4.27;3.87;;;12.80;99.90;;;;;;5061094;28;20181;-85
2023/05/01 14:06:23;;;;;;;4.53;3.47;;;12.90;99.90;;;;;;5057758;28;20202;-85
2023/05/01 14:08:50;;;;;;;4.30;3.90;;;12.70;99.90;;;;;;5058654;28;20188;-85
2023/05/01 14:11:17;;;;;;;4.93;4.07;;;12.60;99.90;;;;;;5059262;28;20196;-84
2023/05/01 14:13:47;;;;;;;5.60;3.97;;;12.60;99.90;;;;;;5059703;28;20590;-85
2023/05/01 14:16:21;;;;;;;5.57;4.70;;;12.60;99.90;;;;;;5058332;28;20671;-85
2023/05/01 14:18:47;;;;;;;5.20;4.43;;;12.50;99.90;;;;;;5059819;28;20171;-86
2023/05/01 14:21:17;;;;;;;3.83;3.27;;;12.40;99.90;;;;;;5058537;28;20183;-85
2023/05/01 14:23:44;;;;;;;6.10;3.93;;;12.20;99.90;;;;;;5058037;28;20269;-85
2023/05/01 14:26:10;;;;;;;4.87;4.10;;;12.10;99.90;;;;;;5058155;28;20193;-85
2023/05/01 14:28:43;;;;;;;4.87;4.37;;;12.00;99.90;;;;;;5057565;28;20181;-85
2023/05/01 14:31:29;;;;;;;6.23;5.13;;;11.90;99.90;;;;;;5058382;28;20182;-84
2023/05/01 14:58:28;;;;;;;10.37;7.13;;;11.70;99.90;;;;;;5132496;27;20752;-78
2023/05/01 15:06:46;;;;;;;7.30;5.70;;;;;;;;;;5132193;27;20297;-77
2023/05/01 15:13:11;;;;;;;4.93;3.90;;;11.80;99.90;;;;;;5132166;27;20594;-77
2023/05/01 15:18:25;;;;;;;7.70;6.47;;;11.80;99.90;;;;;;5152533;27;20278;-77
2023/05/01 15:24:29;;;;;;;4.80;4.30;;;11.70;99.90;;;;;;5132659;27;20782;-78
2023/05/01 15:30:16;;;;;;;3.33;3.00;;;;;;;;;;5132364;27;20285;-77
2023/05/01 15:35:39;;;;;;;3.80;3.50;;;;;;;;;;5132946;27;20271;-77
2023/05/01 15:44:35;;;;;;;4.00;3.37;;;11.50;99.90;;;;;;5131963;27;20275;-77
2023/05/01 15:54:32;;;;;;;3.00;2.70;;;11.20;99.90;;;;;;5132186;27;20277;-77
2023/05/01 16:04:15;;;;;;;3.37;3.07;;;;;;;;;;5131859;27;20634;-77
2023/05/01 16:12:33;;;;;;;4.23;2.20;;;10.90;99.90;;;;;;5131980;27;20275;-78
2023/05/01 16:22:55;;;;;;;3.10;2.77;;;;;;;;;;5131748;27;20775;-77
2023/05/01 16:43:39;;;;;;;2.90;2.70;;;10.50;99.90;;;;;;5133250;27;20297;-78
2023/05/01 16:54:07;;;;;;;3.20;2.90;;;10.70;99.90;;;;;;5132146;27;20272;-77
